Time;durP1;ratioP1;P1;durP2;ratioP2;P2;SDS_P1;SDS_P2;PMS_P1;PMS_P2;Temp;Humidity;BMP_temperature;BMP_pressure;BME280_temperature;BME280_humidity;BME280_pressure;Samples;Min_cycle;Max_cycle;Signal;HPM_P1;HPM_P2
2022/04/12 12:44:07;;;;;;;5.55;2.92;;;;;;;;;;7368043;19;132976;-15
2022/04/12 12:46:40;;;;;;;5.63;2.55;;;;;;;;;;7366336;19;153538;-15
2022/04/12 12:49:13;;;;;;;6.30;2.33;;;;;;;;;;7361468;19;161812;-16
2022/04/12 12:51:45;;;;;;;3.33;2.22;;;;;;;;;;7361209;19;162391;-14
2022/04/12 12:54:18;;;;;;;6.18;2.50;;;;;;;;;;7364362;19;154718;-14
2022/04/12 12:56:50;;;;;;;3.13;2.20;;;;;;;;;;7365876;19;153498;-15
2022/04/12 12:59:30;;;;;;;7.35;2.75;;;;;;;;;;7366253;19;162073;-15
2022/04/12 13:02:10;;;;;;;4.85;2.65;;;;;;;;;;7366776;19;162425;-14
2022/04/12 13:04:42;;;;;;;9.27;2.53;;;;;;;;;;7365303;19;154286;-15
2022/04/12 13:07:16;;;;;;;5.65;2.58;;;;;;;;;;7365714;19;153482;-16
2022/04/12 13:09:48;;;;;;;8.35;3.40;;;;;;;;;;7366818;19;161987;-15
2022/04/12 13:12:21;;;;;;;26.98;11.00;;;;;;;;;;7366077;19;162500;-14
2022/04/12 13:14:55;;;;;;;23.75;8.77;;;;;;;;;;7365936;19;153915;-14
2022/04/12 13:17:26;;;;;;;6.82;3.08;;;;;;;;;;7363222;19;153546;-18
2022/04/12 13:19:57;;;;;;;7.18;3.97;;;;;;;;;;7363216;19;161787;-16
2022/04/12 13:22:29;;;;;;;8.68;3.72;;;;;;;;;;7364601;19;162277;-14
2022/04/12 13:25:01;;;;;;;7.88;3.22;;;;;;;;;;7363114;19;153977;-14
2022/04/12 13:27:34;;;;;;;7.88;3.22;;;;;;;;;;7356565;19;153700;-14
2022/04/12 13:30:09;;;;;;;9.27;3.65;;;;;;;;;;7363815;19;161801;-15
2022/04/12 13:32:43;;;;;;;9.00;3.70;;;;;;;;;;7362623;19;162358;-16
2022/04/12 13:35:17;;;;;;;8.00;3.72;;;;;;;;;;7364021;19;153994;-16
2022/04/12 13:37:48;;;;;;;7.05;3.65;;;;;;;;;;7363676;19;153522;-16
2022/04/12 13:40:21;;;;;;;7.40;3.63;;;;;;;;;;7364177;19;161843;-16
2022/04/12 13:42:52;;;;;;;9.13;4.13;;;;;;;;;;7359831;19;162151;-15
2022/04/12 13:45:26;;;;;;;11.57;3.78;;;;;;;;;;7334374;19;154059;-15
2022/04/12 13:47:57;;;;;;;8.32;3.95;;;;;;;;;;7334557;19;153633;-15
2022/04/12 13:50:29;;;;;;;9.68;3.83;;;;;;;;;;7335171;19;161850;-16
2022/04/12 13:53:00;;;;;;;8.20;4.05;;;;;;;;;;7332469;19;162367;-15
2022/04/12 13:55:31;;;;;;;6.85;4.18;;;;;;;;;;7338418;19;153922;-15
2022/04/12 13:58:03;;;;;;;7.43;4.03;;;;;;;;;;7337543;19;153576;-15
2022/04/12 14:00:37;;;;;;;10.13;3.97;;;;;;;;;;7333992;19;162119;-15
2022/04/12 14:03:08;;;;;;;8.95;4.88;;;;;;;;;;7336695;19;162352;-14
2022/04/12 14:05:40;;;;;;;8.40;4.07;;;;;;;;;;7336730;19;153980;-15
2022/04/12 14:08:12;;;;;;;6.65;4.40;;;;;;;;;;7337653;19;153559;-14
2022/04/12 14:10:44;;;;;;;7.97;4.60;;;;;;;;;;7334485;19;162094;-15
2022/04/12 14:13:15;;;;;;;10.85;4.38;;;;;;;;;;7334256;19;162385;-16
2022/04/12 14:15:49;;;;;;;8.55;4.32;;;;;;;;;;7336944;19;154002;-16
2022/04/12 14:18:21;;;;;;;10.05;4.35;;;;;;;;;;7337053;19;153861;-17
2022/04/12 14:20:53;;;;;;;9.52;4.47;;;;;;;;;;7334457;19;162351;-16
2022/04/12 14:23:24;;;;;;;6.75;4.47;;;;;;;;;;7335401;19;163248;-16
2022/04/12 14:25:56;;;;;;;9.32;3.85;;;;;;;;;;7334753;19;153907;-16
2022/04/12 14:28:27;;;;;;;8.85;4.88;;;;;;;;;;7335974;19;153541;-14
2022/04/12 14:31:01;;;;;;;9.65;4.35;;;;;;;;;;7335517;19;161744;-17
2022/04/12 14:33:32;;;;;;;6.32;3.97;;;;;;;;;;7333279;19;162781;-15
2022/04/12 14:36:04;;;;;;;8.10;4.57;;;;;;;;;;7335020;19;153963;-16
2022/04/12 14:38:35;;;;;;;7.88;3.80;;;;;;;;;;7335821;19;153590;-16
2022/04/12 14:41:07;;;;;;;9.18;4.25;;;;;;;;;;7335180;19;162140;-16
2022/04/12 14:43:38;;;;;;;7.17;4.23;;;;;;;;;;7332687;19;162481;-15
2022/04/12 14:46:14;;;;;;;8.48;4.03;;;;;;;;;;7335798;19;153846;-15
2022/04/12 14:48:45;;;;;;;8.75;4.65;;;;;;;;;;7333857;19;153675;-15
2022/04/12 14:51:17;;;;;;;5.75;3.75;;;;;;;;;;7332937;19;161820;-15
2022/04/12 14:53:48;;;;;;;8.63;3.65;;;;;;;;;;7329769;19;162395;-16
2022/04/12 14:56:19;;;;;;;8.60;4.50;;;;;;;;;;7325856;19;154041;-15
2022/04/12 14:58:51;;;;;;;6.25;4.40;;;;;;;;;;7328735;19;154127;-14
2022/04/12 15:01:25;;;;;;;8.13;3.90;;;;;;;;;;7330768;19;161793;-16
2022/04/12 15:03:56;;;;;;;6.88;4.25;;;;;;;;;;7333887;19;162501;-15
2022/04/12 15:06:27;;;;;;;48.45;23.90;;;;;;;;;;7333965;19;154418;-15
2022/04/12 15:08:59;;;;;;;11.20;6.88;;;;;;;;;;7334311;19;153738;-15
2022/04/12 15:11:30;;;;;;;13.23;6.32;;;;;;;;;;7335055;19;162097;-15
2022/04/12 15:14:02;;;;;;;12.10;6.20;;;;;;;;;;7333145;19;162570;-16
2022/04/12 15:16:37;;;;;;;12.43;7.32;;;;;;;;;;7334807;19;154065;-14
2022/04/12 15:19:08;;;;;;;12.10;7.03;;;;;;;;;;7333035;19;153605;-16
2022/04/12 15:21:40;;;;;;;13.25;6.80;;;;;;;;;;7333638;19;161964;-16
2022/04/12 15:24:12;;;;;;;14.03;6.97;;;;;;;;;;7334607;19;162331;-16
2022/04/12 15:26:43;;;;;;;11.35;6.40;;;;;;;;;;7332149;19;153962;-15
2022/04/12 15:29:14;;;;;;;11.48;6.80;;;;;;;;;;7332828;19;153592;-14
2022/04/12 15:31:49;;;;;;;17.02;7.22;;;;;;;;;;7331678;19;161868;-15
2022/04/12 15:34:20;;;;;;;12.70;7.20;;;;;;;;;;7331212;19;162419;-16
2022/04/12 15:36:51;;;;;;;12.35;6.90;;;;;;;;;;7332436;19;154206;-16
2022/04/12 15:39:24;;;;;;;14.85;6.78;;;;;;;;;;7334167;19;153456;-15
2022/04/12 15:41:56;;;;;;;11.45;6.60;;;;;;;;;;7333138;19;161851;-16
2022/04/12 15:44:27;;;;;;;13.90;7.40;;;;;;;;;;7334434;19;163460;-14
2022/04/12 15:47:01;;;;;;;14.75;7.57;;;;;;;;;;7331028;19;154157;-14
2022/04/12 15:49:32;;;;;;;13.80;6.65;;;;;;;;;;7333292;19;153769;-16
2022/04/12 15:52:04;;;;;;;17.38;7.03;;;;;;;;;;7333360;19;162519;-16
2022/04/12 15:54:35;;;;;;;81.80;43.13;;;;;;;;;;7333319;19;162586;-13
2022/04/12 15:57:07;;;;;;;39.33;20.38;;;;;;;;;;7332222;19;153993;-13
2022/04/12 15:59:38;;;;;;;21.38;10.98;;;;;;;;;;7331333;19;153654;-13
2022/04/12 16:02:12;;;;;;;20.92;11.48;;;;;;;;;;7333185;19;161914;-14
2022/04/12 16:04:44;;;;;;;27.02;12.38;;;;;;;;;;7329637;19;162358;-13
2022/04/12 16:07:15;;;;;;;23.20;12.63;;;;;;;;;;7330124;19;154060;-14
2022/04/12 16:09:46;;;;;;;51.53;25.85;;;;;;;;;;7333424;19;153493;-14
2022/04/12 16:12:17;;;;;;;46.38;21.35;;;;;;;;;;7332499;19;162120;-15
2022/04/12 16:14:49;;;;;;;29.90;18.23;;;;;;;;;;7329252;19;162881;-13
2022/04/12 16:17:23;;;;;;;25.52;14.77;;;;;;;;;;7331739;19;154181;-14
2022/04/12 16:19:54;;;;;;;30.85;15.02;;;;;;;;;;7332007;19;153825;-14
2022/04/12 16:22:25;;;;;;;28.10;15.90;;;;;;;;;;7332565;19;161973;-15
2022/04/12 16:24:57;;;;;;;33.97;16.02;;;;;;;;;;7330954;19;162520;-14
2022/04/12 16:27:28;;;;;;;29.58;16.17;;;;;;;;;;7332172;19;153957;-16
2022/04/12 16:29:59;;;;;;;31.20;16.52;;;;;;;;;;7333047;19;153747;-15
2022/04/12 16:32:33;;;;;;;31.33;16.15;;;;;;;;;;7333752;19;161957;-16
2022/04/12 16:35:05;;;;;;;29.65;14.85;;;;;;;;;;7329337;19;162299;-15
2022/04/12 16:37:37;;;;;;;28.00;15.95;;;;;;;;;;7332845;19;153834;-14
2022/04/12 16:40:10;;;;;;;30.52;16.67;;;;;;;;;;7332342;19;153587;-15
2022/04/12 16:42:41;;;;;;;32.25;16.67;;;;;;;;;;7331776;19;161969;-15
2022/04/12 16:45:13;;;;;;;31.58;17.13;;;;;;;;;;7329045;19;162127;-15
2022/04/12 16:47:47;;;;;;;26.73;14.55;;;;;;;;;;7332090;19;153944;-14
2022/04/12 16:50:19;;;;;;;29.65;16.55;;;;;;;;;;7331141;19;153626;-15
2022/04/12 16:52:53;;;;;;;29.48;16.60;;;;;;;;;;7330085;19;161880;-15
2022/04/12 16:55:26;;;;;;;29.65;16.40;;;;;;;;;;7328488;19;162934;-15
2022/04/12 16:57:58;;;;;;;29.98;15.07;;;;;;;;;;7332445;19;154423;-16
2022/04/12 17:00:32;;;;;;;30.10;15.82;;;;;;;;;;7331348;19;153507;-16
2022/04/12 17:03:06;;;;;;;29.95;14.65;;;;;;;;;;7332592;19;161809;-15
2022/04/12 17:05:37;;;;;;;28.83;15.57;;;;;;;;;;7330620;19;162491;-16
2022/04/12 17:08:09;;;;;;;26.55;14.65;;;;;;;;;;7332052;19;154197;-15
2022/04/12 17:10:40;;;;;;;26.17;14.38;;;;;;;;;;7329079;19;153878;-16
2022/04/12 17:13:11;;;;;;;28.15;13.93;;;;;;;;;;7330001;19;162246;-15
2022/04/12 17:15:42;;;;;;;25.17;14.15;;;;;;;;;;7329135;19;162363;-16
2022/04/12 17:18:18;;;;;;;27.40;14.52;;;;;;;;;;7331570;19;154067;-15
2022/04/12 17:20:49;;;;;;;26.52;14.77;;;;;;;;;;7338568;19;153753;-15
2022/04/12 17:23:21;;;;;;;26.52;14.80;;;;;;;;;;7335636;19;162092;-14
2022/04/12 17:25:52;;;;;;;24.92;14.85;;;;;;;;;;7337561;19;162627;-15
2022/04/12 17:28:24;;;;;;;25.95;15.10;;;;;;;;;;7338073;19;154275;-15
2022/04/12 17:30:55;;;;;;;30.00;15.20;;;;;;;;;;7334665;19;153931;-15
2022/04/12 17:33:29;;;;;;;26.58;14.35;;;;;;;;;;7335545;19;161823;-15
2022/04/12 17:36:01;;;;;;;26.75;13.48;;;;;;;;;;7336284;19;162864;-15
2022/04/12 17:38:32;;;;;;;27.77;13.43;;;;;;;;;;7339120;19;153927;-16
2022/04/12 17:41:03;;;;;;;29.83;14.05;;;;;;;;;;7335026;19;153604;-14
2022/04/12 17:43:34;;;;;;;29.15;14.95;;;;;;;;;;7335064;19;161779;-25
2022/04/12 17:46:06;;;;;;;33.67;15.55;;;;;;;;;;7335771;19;162339;-13
2022/04/12 17:48:40;;;;;;;29.15;15.98;;;;;;;;;;7337216;19;154040;-14
2022/04/12 17:51:11;;;;;;;30.17;15.30;;;;;;;;;;7335240;19;153725;-15
2022/04/12 17:53:44;;;;;;;38.50;16.02;;;;;;;;;;7333542;19;161852;-13
2022/04/12 17:56:15;;;;;;;28.02;16.65;;;;;;;;;;7329390;19;162597;-15
2022/04/12 17:58:47;;;;;;;29.95;15.73;;;;;;;;;;7333466;19;153948;-14
2022/04/12 18:01:19;;;;;;;29.63;15.75;;;;;;;;;;7336826;19;153553;-16
2022/04/12 18:03:53;;;;;;;30.63;16.17;;;;;;;;;;7336208;19;161945;-14
2022/04/12 18:06:25;;;;;;;31.27;15.82;;;;;;;;;;7334554;19;162355;-15
2022/04/12 18:08:57;;;;;;;30.60;15.57;;;;;;;;;;7336450;19;154261;-13
2022/04/12 18:11:29;;;;;;;26.95;14.88;;;;;;;;;;7337137;19;153655;-14
2022/04/12 18:14:00;;;;;;;26.80;14.45;;;;;;;;;;7333795;19;161946;-13
2022/04/12 18:16:31;;;;;;;27.58;13.65;;;;;;;;;;7333318;19;162585;-14
2022/04/12 18:19:06;;;;;;;27.30;14.52;;;;;;;;;;7336137;19;154141;-14
2022/04/12 18:21:37;;;;;;;36.40;17.17;;;;;;;;;;7335586;19;153830;-13
2022/04/12 18:24:09;;;;;;;27.65;14.48;;;;;;;;;;7332485;19;161787;-15
2022/04/12 18:26:40;;;;;;;26.80;14.75;;;;;;;;;;7334600;19;162526;-15
2022/04/12 18:29:12;;;;;;;29.40;14.25;;;;;;;;;;7335932;19;153979;-16
2022/04/12 18:31:43;;;;;;;26.83;13.52;;;;;;;;;;7336808;19;153697;-13
2022/04/12 18:34:16;;;;;;;25.65;12.98;;;;;;;;;;7333603;19;162089;-14
2022/04/12 18:36:48;;;;;;;21.48;13.45;;;;;;;;;;7332683;19;162324;-20
2022/04/12 18:39:19;;;;;;;26.40;13.25;;;;;;;;;;7336938;19;154223;-15
2022/04/12 18:41:50;;;;;;;21.17;13.18;;;;;;;;;;7335219;19;153591;-16
2022/04/12 18:44:22;;;;;;;29.00;12.63;;;;;;;;;;7333712;19;162202;-15
2022/04/12 18:46:53;;;;;;;24.83;12.85;;;;;;;;;;7334663;19;162506;-16
2022/04/12 18:49:27;;;;;;;26.67;11.65;;;;;;;;;;7335996;19;154011;-16
2022/04/12 18:51:58;;;;;;;21.77;10.93;;;;;;;;;;7331953;19;153907;-15
2022/04/12 18:54:29;;;;;;;18.98;11.43;;;;;;;;;;7333619;19;162418;-14
2022/04/12 18:57:01;;;;;;;20.17;11.75;;;;;;;;;;7332893;19;162360;-20
2022/04/12 18:59:34;;;;;;;24.42;12.60;;;;;;;;;;7334991;19;154057;-15
2022/04/12 19:02:07;;;;;;;25.23;12.45;;;;;;;;;;7333151;19;153372;-17
2022/04/12 19:04:42;;;;;;;23.25;11.15;;;;;;;;;;7333859;19;161962;-15
2022/04/12 19:07:15;;;;;;;20.77;11.27;;;;;;;;;;7334928;19;162505;-16
2022/04/12 19:09:47;;;;;;;20.45;10.02;;;;;;;;;;7336113;19;153883;-15
2022/04/12 19:12:21;;;;;;;23.20;10.82;;;;;;;;;;7333035;19;153652;-16
2022/04/12 19:14:52;;;;;;;21.05;10.68;;;;;;;;;;7333953;19;161795;-14
2022/04/12 19:17:24;;;;;;;21.70;10.90;;;;;;;;;;7333141;19;162421;-14
2022/04/12 19:19:58;;;;;;;21.20;10.05;;;;;;;;;;7332491;19;154027;-16
2022/04/12 19:22:31;;;;;;;16.60;10.00;;;;;;;;;;7333412;19;153685;-16
2022/04/12 19:25:02;;;;;;;23.40;10.45;;;;;;;;;;7334107;19;162039;-15
2022/04/12 19:27:34;;;;;;;21.98;10.93;;;;;;;;;;7335028;19;162362;-16
2022/04/12 19:30:06;;;;;;;19.30;9.40;;;;;;;;;;7332589;19;154152;-15
2022/04/12 19:32:37;;;;;;;16.87;9.10;;;;;;;;;;7332180;19;153862;-15
2022/04/12 19:35:13;;;;;;;17.98;9.13;;;;;;;;;;7334908;19;161978;-16
2022/04/12 19:37:47;;;;;;;18.83;9.73;;;;;;;;;;7332923;19;162377;-14
2022/04/12 19:40:19;;;;;;;19.05;10.02;;;;;;;;;;7332587;19;154054;-16
2022/04/12 19:42:51;;;;;;;;;;;;;;;;;;7330425;19;153576;-16
2022/04/12 19:45:22;;;;;;;18.08;9.77;;;;;;;;;;7332633;19;162141;-15
2022/04/12 19:48:00;;;;;;;19.27;8.98;;;;;;;;;;7331360;19;162613;-15
2022/04/12 19:50:34;;;;;;;17.88;9.30;;;;;;;;;;7332662;19;154049;-15
2022/04/12 19:53:05;;;;;;;17.10;9.38;;;;;;;;;;7330866;19;153563;-16
2022/04/12 19:55:37;;;;;;;17.23;8.57;;;;;;;;;;7333596;19;161830;-15
2022/04/12 19:58:10;;;;;;;14.95;8.43;;;;;;;;;;7328644;19;162318;-14
2022/04/12 20:00:42;;;;;;;15.90;8.38;;;;;;;;;;7330492;19;154004;-17
2022/04/12 20:03:14;;;;;;;13.37;7.50;;;;;;;;;;7330311;19;153503;-15
2022/04/12 20:05:48;;;;;;;14.90;8.07;;;;;;;;;;7330261;19;162034;-17
2022/04/12 20:08:19;;;;;;;15.77;8.02;;;;;;;;;;7329680;19;162666;-17
2022/04/12 20:10:50;;;;;;;16.65;8.13;;;;;;;;;;7330238;19;153972;-16
2022/04/12 20:13:21;;;;;;;11.00;6.18;;;;;;;;;;7329925;19;153570;-16
2022/04/12 20:15:52;;;;;;;13.93;7.18;;;;;;;;;;7329793;19;161782;-16
2022/04/12 20:18:24;;;;;;;11.25;6.88;;;;;;;;;;7329651;19;162530;-17
2022/04/12 20:21:00;;;;;;;15.48;7.47;;;;;;;;;;7333769;19;154112;-17
2022/04/12 20:23:31;;;;;;;13.15;7.35;;;;;;;;;;7332318;19;153613;-16
2022/04/12 20:26:02;;;;;;;13.15;6.75;;;;;;;;;;7332379;19;161778;-26
2022/04/12 20:28:35;;;;;;;16.38;7.30;;;;;;;;;;7332590;19;162445;-17
2022/04/12 20:31:07;;;;;;;15.23;7.03;;;;;;;;;;7332861;19;154210;-16
2022/04/12 20:33:38;;;;;;;11.75;6.85;;;;;;;;;;7332560;19;153514;-14
2022/04/12 20:36:14;;;;;;;14.52;6.57;;;;;;;;;;7332278;19;161852;-14
2022/04/12 20:38:45;;;;;;;13.57;7.18;;;;;;;;;;7330162;19;162895;-15
2022/04/12 20:41:17;;;;;;;14.30;7.22;;;;;;;;;;7332008;19;154295;-13
2022/04/12 20:43:48;;;;;;;9.07;6.32;;;;;;;;;;7330127;19;153728;-15
2022/04/12 20:46:20;;;;;;;12.27;6.65;;;;;;;;;;7331632;19;162136;-18
2022/04/12 20:48:51;;;;;;;11.30;7.20;;;;;;;;;;7328096;19;162728;-14
2022/04/12 20:51:25;;;;;;;11.32;6.45;;;;;;;;;;7331633;19;154263;-15
2022/04/12 20:53:56;;;;;;;12.93;6.50;;;;;;;;;;7332568;19;154980;-15
2022/04/12 20:56:28;;;;;;;12.63;6.22;;;;;;;;;;7338670;19;161742;-15
2022/04/12 20:59:00;;;;;;;10.45;6.68;;;;;;;;;;7335395;19;162484;-15
2022/04/12 21:01:32;;;;;;;12.63;6.05;;;;;;;;;;7338366;19;154126;-15
2022/04/12 21:04:04;;;;;;;11.63;6.35;;;;;;;;;;7338440;19;153510;-17
2022/04/12 21:06:38;;;;;;;10.60;6.22;;;;;;;;;;7336534;19;161792;-15
2022/04/12 21:09:10;;;;;;;12.25;6.10;;;;;;;;;;7336588;19;162688;-15
2022/04/12 21:11:42;;;;;;;9.93;5.68;;;;;;;;;;7338916;19;153880;-16
2022/04/12 21:14:13;;;;;;;12.27;5.13;;;;;;;;;;7338444;19;153579;-15
2022/04/12 21:16:44;;;;;;;10.75;6.60;;;;;;;;;;7338664;19;162039;-17
2022/04/12 21:19:17;;;;;;;20.20;7.15;;;;;;;;;;7335877;19;162767;-16
2022/04/12 21:21:51;;;;;;;12.20;6.28;;;;;;;;;;7339193;19;154252;-14
2022/04/12 21:24:22;;;;;;;9.88;5.43;;;;;;;;;;7337294;19;153688;-16
2022/04/12 21:26:53;;;;;;;14.52;5.55;;;;;;;;;;7338090;19;161971;-14
2022/04/12 21:29:25;;;;;;;11.50;5.80;;;;;;;;;;7336161;19;162475;-14
2022/04/12 21:31:56;;;;;;;8.25;5.40;;;;;;;;;;7337612;19;154109;-14
2022/04/12 21:34:28;;;;;;;10.30;5.53;;;;;;;;;;7337184;19;153659;-15
2022/04/12 21:37:02;;;;;;;11.07;5.20;;;;;;;;;;7337941;19;162045;-16
2022/04/12 21:39:34;;;;;;;8.38;4.90;;;;;;;;;;7336022;19;162597;-15
2022/04/12 21:42:06;;;;;;;9.82;5.20;;;;;;;;;;7334031;19;154049;-15
2022/04/12 21:44:37;;;;;;;7.80;5.00;;;;;;;;;;7334436;19;153651;-14
2022/04/12 21:47:09;;;;;;;8.65;5.13;;;;;;;;;;7334299;19;161944;-14
2022/04/12 21:49:40;;;;;;;8.80;4.93;;;;;;;;;;7334293;19;162537;-15
2022/04/12 21:52:14;;;;;;;7.68;4.95;;;;;;;;;;7333666;19;154172;-16
2022/04/12 21:54:46;;;;;;;8.80;5.05;;;;;;;;;;7329726;19;153782;-14
2022/04/12 21:57:18;;;;;;;11.43;5.47;;;;;;;;;;7335458;19;161893;-15
2022/04/12 21:59:49;;;;;;;9.77;4.63;;;;;;;;;;7334254;19;162598;-14
2022/04/12 22:02:20;;;;;;;11.75;4.82;;;;;;;;;;7334336;19;154223;-15
2022/04/12 22:04:51;;;;;;;8.55;5.18;;;;;;;;;;7335565;19;153792;-14
2022/04/12 22:07:25;;;;;;;9.88;5.00;;;;;;;;;;7333471;19;162056;-15
2022/04/12 22:09:56;;;;;;;8.18;4.93;;;;;;;;;;7333639;19;162217;-16
2022/04/12 22:12:28;;;;;;;10.55;5.20;;;;;;;;;;7333893;19;154137;-15
2022/04/12 22:15:00;;;;;;;7.68;4.95;;;;;;;;;;7332610;19;153817;-15
2022/04/12 22:17:31;;;;;;;11.15;4.82;;;;;;;;;;7334159;19;162064;-14
2022/04/12 22:20:03;;;;;;;10.90;4.82;;;;;;;;;;7331380;19;162309;-17
2022/04/12 22:22:37;;;;;;;7.72;4.25;;;;;;;;;;7336003;19;153964;-15
2022/04/12 22:25:09;;;;;;;7.72;3.97;;;;;;;;;;7337184;19;153689;-18
2022/04/12 22:27:41;;;;;;;6.37;3.83;;;;;;;;;;7335673;19;161806;-14
2022/04/12 22:30:13;;;;;;;6.40;3.83;;;;;;;;;;7332396;19;162531;-14
2022/04/12 22:32:44;;;;;;;9.70;4.20;;;;;;;;;;7333024;19;155193;-14
2022/04/12 22:35:18;;;;;;;7.78;4.05;;;;;;;;;;7333108;19;153795;-16
2022/04/12 22:37:52;;;;;;;6.43;4.28;;;;;;;;;;7331316;19;161947;-14
2022/04/12 22:40:25;;;;;;;6.03;3.75;;;;;;;;;;7330089;19;162389;-18
2022/04/12 22:42:56;;;;;;;8.25;4.03;;;;;;;;;;7332905;19;154108;-21
2022/04/12 22:45:29;;;;;;;9.53;4.37;;;;;;;;;;7337099;19;153534;-16
2022/04/12 22:48:01;;;;;;;6.47;3.80;;;;;;;;;;7333379;19;161623;-16
2022/04/12 22:50:33;;;;;;;10.52;4.28;;;;;;;;;;7335943;19;162644;-16
2022/04/12 22:53:08;;;;;;;11.48;4.07;;;;;;;;;;7332440;19;154050;-16
2022/04/12 22:55:39;;;;;;;8.35;4.05;;;;;;;;;;7332129;19;153803;-14
2022/04/12 22:58:10;;;;;;;8.93;4.05;;;;;;;;;;7331475;19;162103;-15
2022/04/12 23:00:42;;;;;;;6.50;4.13;;;;;;;;;;7333781;19;162394;-17
2022/04/12 23:03:13;;;;;;;6.40;4.40;;;;;;;;;;7332721;19;154043;-14
2022/04/12 23:05:45;;;;;;;6.07;3.67;;;;;;;;;;7335745;19;153696;-14
2022/04/12 23:08:20;;;;;;;9.43;3.80;;;;;;;;;;7331934;19;161798;-13
2022/04/12 23:10:51;;;;;;;8.50;3.88;;;;;;;;;;7331251;19;162488;-14
2022/04/12 23:13:24;;;;;;;9.13;4.07;;;;;;;;;;7330784;19;154153;-16
2022/04/12 23:15:55;;;;;;;7.10;3.85;;;;;;;;;;7327350;19;153619;-14
2022/04/12 23:18:31;;;;;;;7.75;4.03;;;;;;;;;;7332359;19;161917;-13
2022/04/12 23:21:02;;;;;;;6.65;3.80;;;;;;;;;;7327563;19;162581;-14
2022/04/12 23:23:36;;;;;;;5.85;3.80;;;;;;;;;;7331851;19;154365;-15
2022/04/12 23:26:08;;;;;;;8.20;3.92;;;;;;;;;;7334255;19;153604;-15
2022/04/12 23:28:39;;;;;;;5.47;3.17;;;;;;;;;;7329908;19;161830;-16
2022/04/12 23:31:11;;;;;;;6.70;3.53;;;;;;;;;;7329958;19;162782;-15
2022/04/12 23:33:47;;;;;;;6.88;3.83;;;;;;;;;;7331046;19;154333;-17
2022/04/12 23:36:18;;;;;;;5.10;3.40;;;;;;;;;;7332808;19;153904;-17
2022/04/12 23:38:52;;;;;;;7.28;3.35;;;;;;;;;;7333476;19;161857;-16
2022/04/12 23:41:24;;;;;;;5.47;3.33;;;;;;;;;;7330996;19;162554;-16
2022/04/12 23:43:56;;;;;;;5.07;3.00;;;;;;;;;;7328213;19;153932;-16
2022/04/12 23:46:28;;;;;;;4.88;3.53;;;;;;;;;;7330795;19;153660;-16
2022/04/12 23:49:00;;;;;;;6.60;3.83;;;;;;;;;;7330791;19;161788;-15
2022/04/12 23:51:31;;;;;;;5.28;3.03;;;;;;;;;;7330869;19;162529;-17
2022/04/12 23:54:05;;;;;;;7.05;3.47;;;;;;;;;;7331164;19;153987;-17
2022/04/12 23:56:37;;;;;;;6.80;3.35;;;;;;;;;;7332218;19;153826;-16
2022/04/12 23:59:08;;;;;;;4.20;2.95;;;;;;;;;;7333896;19;161825;-16
